sensor_id;sensor_type;location;lat;lon;timestamp;noise_LAeq;noise_LA_min;noise_LA_max;noise_LA01;noise_LA95
58251;Laerm;51449;51.676;5.812;2023-02-15T00:00:31;32.90;29.91;50.72;;
58251;Laerm;51449;51.676;5.812;2023-02-15T00:02:53;32.64;29.72;39.04;;
58251;Laerm;51449;51.676;5.812;2023-02-15T00:05:14;31.72;29.52;35.08;;
58251;Laerm;51449;51.676;5.812;2023-02-15T00:07:36;50.15;29.60;66.67;;
58251;Laerm;51449;51.676;5.812;2023-02-15T00:09:58;32.10;29.63;36.49;;
58251;Laerm;51449;51.676;5.812;2023-02-15T00:12:19;59.06;30.76;74.80;;
58251;Laerm;51449;51.676;5.812;2023-02-15T00:14:41;32.14;29.32;37.25;;
58251;Laerm;51449;51.676;5.812;2023-02-15T00:17:03;31.90;29.57;40.48;;
58251;Laerm;51449;51.676;5.812;2023-02-15T00:19:25;31.27;29.07;35.57;;
58251;Laerm;51449;51.676;5.812;2023-02-15T00:21:48;31.22;29.13;35.63;;
58251;Laerm;51449;51.676;5.812;2023-02-15T00:24:13;30.99;28.83;35.56;;
58251;Laerm;51449;51.676;5.812;2023-02-15T00:26:39;31.10;28.66;36.68;;
58251;Laerm;51449;51.676;5.812;2023-02-15T00:29:01;31.50;29.26;38.36;;
58251;Laerm;51449;51.676;5.812;2023-02-15T00:31:22;47.35;29.53;64.40;;
58251;Laerm;51449;51.676;5.812;2023-02-15T00:33:44;31.95;29.72;34.84;;
58251;Laerm;51449;51.676;5.812;2023-02-15T00:36:09;31.73;29.20;35.73;;
58251;Laerm;51449;51.676;5.812;2023-02-15T00:38:32;48.27;29.50;65.47;;
58251;Laerm;51449;51.676;5.812;2023-02-15T00:40:55;31.22;28.70;41.64;;
58251;Laerm;51449;51.676;5.812;2023-02-15T00:43:17;30.71;28.82;40.10;;
58251;Laerm;51449;51.676;5.812;2023-02-15T00:45:39;31.50;29.13;37.84;;
58251;Laerm;51449;51.676;5.812;2023-02-15T00:48:00;32.03;29.50;35.58;;
58251;Laerm;51449;51.676;5.812;2023-02-15T00:50:22;31.66;29.00;36.98;;
58251;Laerm;51449;51.676;5.812;2023-02-15T00:52:44;31.60;29.28;37.31;;
58251;Laerm;51449;51.676;5.812;2023-02-15T00:55:06;32.33;29.03;36.67;;
58251;Laerm;51449;51.676;5.812;2023-02-15T00:57:28;31.98;29.44;41.19;;
58251;Laerm;51449;51.676;5.812;2023-02-15T00:59:50;53.30;29.00;70.62;;
58251;Laerm;51449;51.676;5.812;2023-02-15T01:02:12;32.78;29.14;50.55;;
58251;Laerm;51449;51.676;5.812;2023-02-15T01:04:33;46.07;30.12;62.92;;
58251;Laerm;51449;51.676;5.812;2023-02-15T01:06:55;31.86;29.57;39.48;;
58251;Laerm;51449;51.676;5.812;2023-02-15T01:09:17;46.84;29.71;64.66;;
58251;Laerm;51449;51.676;5.812;2023-02-15T01:11:39;32.58;29.28;46.75;;
58251;Laerm;51449;51.676;5.812;2023-02-15T01:14:00;57.73;29.62;73.21;;
58251;Laerm;51449;51.676;5.812;2023-02-15T01:16:25;33.73;29.42;58.76;;
58251;Laerm;51449;51.676;5.812;2023-02-15T01:18:47;31.28;28.74;50.39;;
58251;Laerm;51449;51.676;5.812;2023-02-15T01:21:16;31.49;28.91;37.22;;
58251;Laerm;51449;51.676;5.812;2023-02-15T01:23:40;33.24;29.41;44.52;;
58251;Laerm;51449;51.676;5.812;2023-02-15T01:26:02;54.25;30.69;72.82;;
58251;Laerm;51449;51.676;5.812;2023-02-15T01:28:24;55.78;31.01;74.28;;
58251;Laerm;51449;51.676;5.812;2023-02-15T01:30:46;33.22;30.01;50.72;;
58251;Laerm;51449;51.676;5.812;2023-02-15T01:33:10;58.75;30.08;75.55;;
58251;Laerm;51449;51.676;5.812;2023-02-15T01:35:38;33.71;29.39;47.72;;
58251;Laerm;51449;51.676;5.812;2023-02-15T01:38:00;58.86;29.98;75.65;;
58251;Laerm;51449;51.676;5.812;2023-02-15T01:40:23;52.42;30.33;70.84;;
58251;Laerm;51449;51.676;5.812;2023-02-15T01:42:45;32.00;29.33;37.61;;
58251;Laerm;51449;51.676;5.812;2023-02-15T01:47:44;34.28;30.41;54.94;;
58251;Laerm;51449;51.676;5.812;2023-02-15T01:50:16;53.66;30.61;69.81;;
58251;Laerm;51449;51.676;5.812;2023-02-15T01:52:50;57.88;29.92;74.90;;
58251;Laerm;51449;51.676;5.812;2023-02-15T01:55:14;52.15;29.74;67.20;;
58251;Laerm;51449;51.676;5.812;2023-02-15T01:57:37;32.91;28.99;40.88;;
58251;Laerm;51449;51.676;5.812;2023-02-15T02:00:04;47.47;30.10;65.69;;
58251;Laerm;51449;51.676;5.812;2023-02-15T02:02:34;50.61;29.97;69.15;;
58251;Laerm;51449;51.676;5.812;2023-02-15T02:05:03;32.64;29.28;40.50;;
58251;Laerm;51449;51.676;5.812;2023-02-15T02:07:29;50.70;29.05;67.64;;
58251;Laerm;51449;51.676;5.812;2023-02-15T02:09:54;30.62;28.74;40.49;;
58251;Laerm;51449;51.676;5.812;2023-02-15T02:12:19;30.45;28.26;45.14;;
58251;Laerm;51449;51.676;5.812;2023-02-15T02:14:44;31.64;29.08;40.36;;
58251;Laerm;51449;51.676;5.812;2023-02-15T02:17:17;57.26;29.09;71.63;;
58251;Laerm;51449;51.676;5.812;2023-02-15T02:26:25;49.87;28.70;68.42;;
58251;Laerm;51449;51.676;5.812;2023-02-15T02:34:33;44.33;29.52;61.86;;
58251;Laerm;51449;51.676;5.812;2023-02-15T02:37:17;47.86;30.24;66.86;;
58251;Laerm;51449;51.676;5.812;2023-02-15T02:42:48;33.47;29.97;47.13;;
58251;Laerm;51449;51.676;5.812;2023-02-15T02:45:22;58.21;31.52;73.37;;
58251;Laerm;51449;51.676;5.812;2023-02-15T02:47:52;55.74;30.36;71.09;;
58251;Laerm;51449;51.676;5.812;2023-02-15T02:50:23;53.34;30.33;69.41;;
58251;Laerm;51449;51.676;5.812;2023-02-15T02:52:49;32.59;29.87;41.11;;
58251;Laerm;51449;51.676;5.812;2023-02-15T02:55:16;35.25;29.90;50.43;;
58251;Laerm;51449;51.676;5.812;2023-02-15T03:00:15;34.53;28.70;51.57;;
58251;Laerm;51449;51.676;5.812;2023-02-15T03:02:41;37.47;30.32;52.93;;
58251;Laerm;51449;51.676;5.812;2023-02-15T03:05:14;57.48;31.26;72.76;;
58251;Laerm;51449;51.676;5.812;2023-02-15T03:07:40;59.67;30.61;77.36;;
58251;Laerm;51449;51.676;5.812;2023-02-15T03:10:05;55.56;29.92;72.69;;
58251;Laerm;51449;51.676;5.812;2023-02-15T03:12:36;57.98;30.39;74.59;;
58251;Laerm;51449;51.676;5.812;2023-02-15T03:17:31;32.00;29.09;40.93;;
58251;Laerm;51449;51.676;5.812;2023-02-15T03:20:00;53.42;29.53;69.66;;
58251;Laerm;51449;51.676;5.812;2023-02-15T03:22:34;55.39;29.73;74.40;;
58251;Laerm;51449;51.676;5.812;2023-02-15T03:27:37;50.05;30.50;67.88;;
58251;Laerm;51449;51.676;5.812;2023-02-15T03:30:04;46.18;30.76;63.07;;
58251;Laerm;51449;51.676;5.812;2023-02-15T03:32:32;57.62;30.65;71.79;;
58251;Laerm;51449;51.676;5.812;2023-02-15T03:34:55;50.25;30.87;66.53;;
58251;Laerm;51449;51.676;5.812;2023-02-15T03:37:36;51.38;30.24;66.38;;
58251;Laerm;51449;51.676;5.812;2023-02-15T03:40:11;50.31;30.72;65.30;;
58251;Laerm;51449;51.676;5.812;2023-02-15T03:43:12;51.27;30.11;67.06;;
58251;Laerm;51449;51.676;5.812;2023-02-15T03:45:40;47.04;29.62;63.66;;
58251;Laerm;51449;51.676;5.812;2023-02-15T03:48:17;54.33;29.25;69.38;;
58251;Laerm;51449;51.676;5.812;2023-02-15T03:50:40;47.07;30.24;64.40;;
58251;Laerm;51449;51.676;5.812;2023-02-15T03:53:23;48.33;30.42;67.10;;
58251;Laerm;51449;51.676;5.812;2023-02-15T03:55:54;47.47;30.25;65.86;;
58251;Laerm;51449;51.676;5.812;2023-02-15T03:58:16;50.60;31.08;65.07;;
58251;Laerm;51449;51.676;5.812;2023-02-15T04:01:15;47.42;29.36;64.87;;
58251;Laerm;51449;51.676;5.812;2023-02-15T04:04:11;51.97;30.14;70.43;;
58251;Laerm;51449;51.676;5.812;2023-02-15T04:06:35;54.56;32.93;69.67;;
58251;Laerm;51449;51.676;5.812;2023-02-15T04:08:57;55.67;33.38;69.11;;
58251;Laerm;51449;51.676;5.812;2023-02-15T04:11:37;61.65;34.19;72.30;;
58251;Laerm;51449;51.676;5.812;2023-02-15T04:13:58;57.62;34.49;71.21;;
58251;Laerm;51449;51.676;5.812;2023-02-15T04:16:40;56.55;34.72;69.34;;
58251;Laerm;51449;51.676;5.812;2023-02-15T04:19:01;57.88;34.35;70.18;;
58251;Laerm;51449;51.676;5.812;2023-02-15T04:21:42;61.12;38.58;73.80;;
58251;Laerm;51449;51.676;5.812;2023-02-15T04:24:23;61.58;35.49;73.81;;
58251;Laerm;51449;51.676;5.812;2023-02-15T04:27:04;61.66;36.55;73.00;;
58251;Laerm;51449;51.676;5.812;2023-02-15T04:29:29;58.19;35.16;70.65;;
58251;Laerm;51449;51.676;5.812;2023-02-15T04:31:55;57.13;36.40;71.08;;
58251;Laerm;51449;51.676;5.812;2023-02-15T04:34:17;61.39;36.01;72.13;;
58251;Laerm;51449;51.676;5.812;2023-02-15T04:36:40;61.68;38.86;76.43;;
58251;Laerm;51449;51.676;5.812;2023-02-15T04:39:02;53.95;35.85;69.40;;
58251;Laerm;51449;51.676;5.812;2023-02-15T04:41:24;56.63;35.77;71.93;;
58251;Laerm;51449;51.676;5.812;2023-02-15T04:43:46;58.82;39.24;71.27;;
58251;Laerm;51449;51.676;5.812;2023-02-15T04:46:08;64.08;37.05;75.20;;
58251;Laerm;51449;51.676;5.812;2023-02-15T04:48:29;52.90;36.95;65.82;;
58251;Laerm;51449;51.676;5.812;2023-02-15T04:50:51;61.68;37.70;75.72;;
58251;Laerm;51449;51.676;5.812;2023-02-15T04:53:13;60.00;38.49;71.53;;
58251;Laerm;51449;51.676;5.812;2023-02-15T04:55:34;62.21;36.54;76.27;;
58251;Laerm;51449;51.676;5.812;2023-02-15T04:57:56;55.91;35.55;68.42;;
58251;Laerm;51449;51.676;5.812;2023-02-15T05:00:18;55.84;38.23;65.74;;
58251;Laerm;51449;51.676;5.812;2023-02-15T05:02:40;61.19;38.79;73.87;;
58251;Laerm;51449;51.676;5.812;2023-02-15T05:05:01;58.05;37.31;69.43;;
58251;Laerm;51449;51.676;5.812;2023-02-15T05:07:23;61.17;41.31;71.71;;
58251;Laerm;51449;51.676;5.812;2023-02-15T05:09:45;61.97;42.47;72.80;;
58251;Laerm;51449;51.676;5.812;2023-02-15T05:12:06;64.61;46.39;72.87;;
58251;Laerm;51449;51.676;5.812;2023-02-15T05:14:28;65.92;45.15;77.88;;
58251;Laerm;51449;51.676;5.812;2023-02-15T05:16:49;63.22;41.47;74.20;;
58251;Laerm;51449;51.676;5.812;2023-02-15T05:19:11;62.33;41.04;72.31;;
58251;Laerm;51449;51.676;5.812;2023-02-15T05:21:35;63.66;41.41;76.02;;
58251;Laerm;51449;51.676;5.812;2023-02-15T05:23:57;64.21;46.19;76.51;;
58251;Laerm;51449;51.676;5.812;2023-02-15T05:26:22;65.78;41.73;75.71;;
58251;Laerm;51449;51.676;5.812;2023-02-15T05:29:04;63.63;45.98;73.73;;
58251;Laerm;51449;51.676;5.812;2023-02-15T05:31:25;64.88;45.90;72.93;;
58251;Laerm;51449;51.676;5.812;2023-02-15T05:33:47;63.65;43.55;73.68;;
58251;Laerm;51449;51.676;5.812;2023-02-15T05:36:09;64.78;47.54;74.09;;
58251;Laerm;51449;51.676;5.812;2023-02-15T05:38:31;63.15;42.91;76.21;;
58251;Laerm;51449;51.676;5.812;2023-02-15T05:40:53;62.71;46.76;72.63;;
58251;Laerm;51449;51.676;5.812;2023-02-15T05:43:15;65.27;44.55;75.49;;
58251;Laerm;51449;51.676;5.812;2023-02-15T05:45:36;65.45;45.24;78.60;;
58251;Laerm;51449;51.676;5.812;2023-02-15T05:47:58;63.50;46.32;71.42;;
58251;Laerm;51449;51.676;5.812;2023-02-15T05:50:20;64.16;43.36;76.50;;
58251;Laerm;51449;51.676;5.812;2023-02-15T05:52:42;66.55;47.49;80.08;;
58251;Laerm;51449;51.676;5.812;2023-02-15T05:55:05;66.94;57.19;75.63;;
58251;Laerm;51449;51.676;5.812;2023-02-15T05:57:27;62.74;44.27;71.61;;
58251;Laerm;51449;51.676;5.812;2023-02-15T05:59:48;65.20;45.40;75.95;;
58251;Laerm;51449;51.676;5.812;2023-02-15T06:02:10;68.16;49.22;78.89;;
58251;Laerm;51449;51.676;5.812;2023-02-15T06:04:32;68.04;53.73;77.32;;
58251;Laerm;51449;51.676;5.812;2023-02-15T06:06:54;67.85;45.41;77.91;;
58251;Laerm;51449;51.676;5.812;2023-02-15T06:09:16;65.72;47.00;77.55;;
58251;Laerm;51449;51.676;5.812;2023-02-15T06:11:39;66.44;48.09;85.34;;
58251;Laerm;51449;51.676;5.812;2023-02-15T06:14:01;65.55;47.05;73.51;;
58251;Laerm;51449;51.676;5.812;2023-02-15T06:16:23;66.39;45.98;79.99;;
58251;Laerm;51449;51.676;5.812;2023-02-15T06:18:44;66.09;48.16;83.44;;
58251;Laerm;51449;51.676;5.812;2023-02-15T06:21:06;64.24;50.35;74.65;;
58251;Laerm;51449;51.676;5.812;2023-02-15T06:23:27;67.06;51.32;77.20;;
58251;Laerm;51449;51.676;5.812;2023-02-15T06:25:50;64.79;47.89;76.64;;
58251;Laerm;51449;51.676;5.812;2023-02-15T06:28:12;64.56;44.23;75.23;;
58251;Laerm;51449;51.676;5.812;2023-02-15T06:30:33;63.87;45.65;74.76;;
58251;Laerm;51449;51.676;5.812;2023-02-15T06:32:56;67.18;51.57;75.90;;
58251;Laerm;51449;51.676;5.812;2023-02-15T06:35:18;66.01;50.66;75.67;;
58251;Laerm;51449;51.676;5.812;2023-02-15T06:37:40;67.58;55.43;75.26;;
58251;Laerm;51449;51.676;5.812;2023-02-15T06:40:02;66.42;48.74;74.23;;
58251;Laerm;51449;51.676;5.812;2023-02-15T06:42:25;66.68;51.06;75.14;;
58251;Laerm;51449;51.676;5.812;2023-02-15T06:44:47;67.36;54.53;78.36;;
58251;Laerm;51449;51.676;5.812;2023-02-15T06:47:08;66.85;51.92;75.04;;
58251;Laerm;51449;51.676;5.812;2023-02-15T06:49:30;65.50;46.86;77.05;;
58251;Laerm;51449;51.676;5.812;2023-02-15T06:51:52;66.11;47.91;74.23;;
58251;Laerm;51449;51.676;5.812;2023-02-15T06:54:13;65.52;48.27;74.57;;
58251;Laerm;51449;51.676;5.812;2023-02-15T06:56:35;65.77;44.36;73.51;;
58251;Laerm;51449;51.676;5.812;2023-02-15T06:58:57;63.95;47.02;70.68;;
58251;Laerm;51449;51.676;5.812;2023-02-15T07:01:18;64.94;45.40;73.62;;
58251;Laerm;51449;51.676;5.812;2023-02-15T07:03:40;67.83;44.77;78.15;;
58251;Laerm;51449;51.676;5.812;2023-02-15T07:06:04;66.40;48.29;75.94;;
58251;Laerm;51449;51.676;5.812;2023-02-15T07:08:29;65.63;47.68;75.99;;
58251;Laerm;51449;51.676;5.812;2023-02-15T07:10:52;66.02;48.59;82.40;;
58251;Laerm;51449;51.676;5.812;2023-02-15T07:13:14;68.96;48.83;81.94;;
58251;Laerm;51449;51.676;5.812;2023-02-15T07:15:36;63.06;48.44;75.26;;
58251;Laerm;51449;51.676;5.812;2023-02-15T07:17:58;67.18;47.94;78.40;;
58251;Laerm;51449;51.676;5.812;2023-02-15T07:20:23;67.05;46.86;80.87;;
58251;Laerm;51449;51.676;5.812;2023-02-15T07:22:44;67.46;49.70;80.18;;
58251;Laerm;51449;51.676;5.812;2023-02-15T07:25:09;63.79;45.23;72.60;;
58251;Laerm;51449;51.676;5.812;2023-02-15T07:27:31;65.40;45.79;76.54;;
58251;Laerm;51449;51.676;5.812;2023-02-15T07:29:53;66.53;43.22;78.30;;
58251;Laerm;51449;51.676;5.812;2023-02-15T07:32:14;68.37;45.45;79.43;;
58251;Laerm;51449;51.676;5.812;2023-02-15T07:34:36;66.68;48.05;82.27;;
58251;Laerm;51449;51.676;5.812;2023-02-15T07:36:57;71.10;51.80;87.04;;
58251;Laerm;51449;51.676;5.812;2023-02-15T07:39:20;67.33;45.87;75.72;;
58251;Laerm;51449;51.676;5.812;2023-02-15T07:41:42;65.26;45.42;72.19;;
58251;Laerm;51449;51.676;5.812;2023-02-15T07:44:12;63.19;43.98;71.94;;
58251;Laerm;51449;51.676;5.812;2023-02-15T07:46:34;66.32;44.45;79.48;;
58251;Laerm;51449;51.676;5.812;2023-02-15T07:48:56;65.97;49.91;79.40;;
58251;Laerm;51449;51.676;5.812;2023-02-15T07:51:18;65.41;47.44;78.45;;
58251;Laerm;51449;51.676;5.812;2023-02-15T07:53:41;66.24;50.69;79.31;;
58251;Laerm;51449;51.676;5.812;2023-02-15T07:56:07;65.81;49.89;79.19;;
58251;Laerm;51449;51.676;5.812;2023-02-15T07:58:30;65.23;53.99;78.86;;
58251;Laerm;51449;51.676;5.812;2023-02-15T08:01:10;66.43;45.29;76.54;;
58251;Laerm;51449;51.676;5.812;2023-02-15T08:03:32;64.06;46.96;74.01;;
58251;Laerm;51449;51.676;5.812;2023-02-15T08:05:59;65.42;45.13;74.94;;
58251;Laerm;51449;51.676;5.812;2023-02-15T08:08:21;63.62;42.32;75.11;;
58251;Laerm;51449;51.676;5.812;2023-02-15T08:10:52;64.10;42.96;74.61;;
58251;Laerm;51449;51.676;5.812;2023-02-15T08:13:33;63.71;42.68;73.54;;
58251;Laerm;51449;51.676;5.812;2023-02-15T08:15:55;62.98;42.84;73.93;;
58251;Laerm;51449;51.676;5.812;2023-02-15T08:18:17;65.95;46.25;75.37;;
58251;Laerm;51449;51.676;5.812;2023-02-15T08:20:39;64.55;46.45;77.33;;
58251;Laerm;51449;51.676;5.812;2023-02-15T08:23:01;65.79;44.92;74.45;;
58251;Laerm;51449;51.676;5.812;2023-02-15T08:25:22;67.14;42.08;82.22;;
58251;Laerm;51449;51.676;5.812;2023-02-15T08:27:44;65.27;44.44;84.79;;
58251;Laerm;51449;51.676;5.812;2023-02-15T08:30:06;65.79;43.64;77.41;;
58251;Laerm;51449;51.676;5.812;2023-02-15T08:32:28;63.56;43.45;75.64;;
58251;Laerm;51449;51.676;5.812;2023-02-15T08:34:50;67.22;46.48;79.79;;
58251;Laerm;51449;51.676;5.812;2023-02-15T08:37:11;66.47;47.00;79.08;;
58251;Laerm;51449;51.676;5.812;2023-02-15T08:39:34;64.30;42.73;72.41;;
58251;Laerm;51449;51.676;5.812;2023-02-15T08:41:56;64.70;44.29;77.97;;
58251;Laerm;51449;51.676;5.812;2023-02-15T08:44:19;65.83;45.05;77.75;;
58251;Laerm;51449;51.676;5.812;2023-02-15T08:46:44;67.07;43.77;80.26;;
58251;Laerm;51449;51.676;5.812;2023-02-15T08:49:08;63.71;40.74;74.54;;
58251;Laerm;51449;51.676;5.812;2023-02-15T08:51:34;60.22;41.47;72.60;;
58251;Laerm;51449;51.676;5.812;2023-02-15T08:54:01;64.43;43.69;76.80;;
58251;Laerm;51449;51.676;5.812;2023-02-15T08:56:26;66.72;46.18;84.27;;
58251;Laerm;51449;51.676;5.812;2023-02-15T08:58:49;69.59;41.67;84.71;;
58251;Laerm;51449;51.676;5.812;2023-02-15T09:01:15;64.66;42.66;76.08;;
58251;Laerm;51449;51.676;5.812;2023-02-15T09:03:41;63.92;41.24;74.15;;
58251;Laerm;51449;51.676;5.812;2023-02-15T09:06:03;65.91;48.95;75.12;;
58251;Laerm;51449;51.676;5.812;2023-02-15T09:08:26;63.16;41.00;73.40;;
58251;Laerm;51449;51.676;5.812;2023-02-15T09:10:48;64.46;42.71;73.84;;
58251;Laerm;51449;51.676;5.812;2023-02-15T09:13:10;62.28;41.35;74.48;;
58251;Laerm;51449;51.676;5.812;2023-02-15T09:15:32;61.26;40.42;74.07;;
58251;Laerm;51449;51.676;5.812;2023-02-15T09:17:53;61.93;41.41;71.21;;
58251;Laerm;51449;51.676;5.812;2023-02-15T09:20:15;64.68;45.95;75.87;;
58251;Laerm;51449;51.676;5.812;2023-02-15T09:22:37;61.93;41.23;81.89;;
58251;Laerm;51449;51.676;5.812;2023-02-15T09:24:58;64.53;41.49;80.51;;
58251;Laerm;51449;51.676;5.812;2023-02-15T09:27:20;63.53;42.17;72.35;;
58251;Laerm;51449;51.676;5.812;2023-02-15T09:29:41;63.55;43.56;78.47;;
58251;Laerm;51449;51.676;5.812;2023-02-15T09:32:03;63.49;42.72;76.54;;
58251;Laerm;51449;51.676;5.812;2023-02-15T09:34:25;59.80;41.19;72.78;;
58251;Laerm;51449;51.676;5.812;2023-02-15T09:36:48;62.81;40.19;73.23;;
58251;Laerm;51449;51.676;5.812;2023-02-15T09:39:22;66.00;43.88;80.99;;
58251;Laerm;51449;51.676;5.812;2023-02-15T09:45:16;64.83;43.35;75.43;;
58251;Laerm;51449;51.676;5.812;2023-02-15T09:53:59;65.33;41.53;76.84;;
58251;Laerm;51449;51.676;5.812;2023-02-15T09:56:36;84.81;40.85;105.92;;
58251;Laerm;51449;51.676;5.812;2023-02-15T09:59:25;64.55;41.83;74.09;;
58251;Laerm;51449;51.676;5.812;2023-02-15T10:02:16;61.84;38.61;72.05;;
58251;Laerm;51449;51.676;5.812;2023-02-15T10:05:09;62.56;39.35;72.23;;
58251;Laerm;51449;51.676;5.812;2023-02-15T10:10:50;64.18;44.60;80.67;;
58251;Laerm;51449;51.676;5.812;2023-02-15T10:13:43;62.03;39.48;72.46;;
58251;Laerm;51449;51.676;5.812;2023-02-15T10:16:41;63.52;42.27;73.80;;
58251;Laerm;51449;51.676;5.812;2023-02-15T10:23:35;63.62;38.90;75.60;;
58251;Laerm;51449;51.676;5.812;2023-02-15T10:27:52;65.52;37.65;81.06;;
58251;Laerm;51449;51.676;5.812;2023-02-15T10:30:51;62.47;38.66;73.02;;
58251;Laerm;51449;51.676;5.812;2023-02-15T10:33:38;63.32;38.07;79.04;;
58251;Laerm;51449;51.676;5.812;2023-02-15T10:39:15;64.38;45.06;78.93;;
58251;Laerm;51449;51.676;5.812;2023-02-15T10:42:03;66.04;44.76;77.87;;
58251;Laerm;51449;51.676;5.812;2023-02-15T10:45:09;65.50;44.23;73.16;;
58251;Laerm;51449;51.676;5.812;2023-02-15T11:05:32;64.14;38.49;73.09;;
58251;Laerm;51449;51.676;5.812;2023-02-15T11:08:00;61.49;38.86;72.46;;
58251;Laerm;51449;51.676;5.812;2023-02-15T11:10:44;59.41;38.14;71.05;;
58251;Laerm;51449;51.676;5.812;2023-02-15T11:13:19;63.51;42.87;78.97;;
58251;Laerm;51449;51.676;5.812;2023-02-15T11:15:53;66.69;51.92;75.37;;
58251;Laerm;51449;51.676;5.812;2023-02-15T11:18:43;61.76;39.95;77.97;;
58251;Laerm;51449;51.676;5.812;2023-02-15T11:21:45;60.95;38.21;77.65;;
58251;Laerm;51449;51.676;5.812;2023-02-15T11:24:10;64.25;45.94;75.22;;
58251;Laerm;51449;51.676;5.812;2023-02-15T11:26:40;67.84;57.70;88.56;;
58251;Laerm;51449;51.676;5.812;2023-02-15T11:29:33;62.13;42.36;73.08;;
58251;Laerm;51449;51.676;5.812;2023-02-15T11:32:14;66.33;45.19;76.25;;
58251;Laerm;51449;51.676;5.812;2023-02-15T11:38:42;66.01;36.30;75.53;;
58251;Laerm;51449;51.676;5.812;2023-02-15T11:40:56;63.49;40.12;74.21;;
58251;Laerm;51449;51.676;5.812;2023-02-15T11:43:39;62.46;36.91;73.66;;
58251;Laerm;51449;51.676;5.812;2023-02-15T11:46:03;63.42;42.84;74.00;;
58251;Laerm;51449;51.676;5.812;2023-02-15T11:48:25;64.33;44.18;73.30;;
58251;Laerm;51449;51.676;5.812;2023-02-15T11:50:47;59.06;40.26;70.16;;
58251;Laerm;51449;51.676;5.812;2023-02-15T11:53:14;64.81;40.84;76.12;;
58251;Laerm;51449;51.676;5.812;2023-02-15T11:55:37;62.11;40.55;73.20;;
58251;Laerm;51449;51.676;5.812;2023-02-15T11:58:35;65.47;43.44;78.58;;
58251;Laerm;51449;51.676;5.812;2023-02-15T12:01:31;61.52;37.28;74.98;;
58251;Laerm;51449;51.676;5.812;2023-02-15T12:04:06;63.62;37.18;74.57;;
58251;Laerm;51449;51.676;5.812;2023-02-15T12:06:45;62.69;37.53;72.57;;
58251;Laerm;51449;51.676;5.812;2023-02-15T12:09:49;63.70;37.93;76.32;;
58251;Laerm;51449;51.676;5.812;2023-02-15T12:12:43;64.45;38.98;73.36;;
58251;Laerm;51449;51.676;5.812;2023-02-15T12:15:11;65.79;45.92;77.39;;
58251;Laerm;51449;51.676;5.812;2023-02-15T12:17:52;61.70;40.23;74.56;;
58251;Laerm;51449;51.676;5.812;2023-02-15T12:22:37;65.13;40.21;77.55;;
58251;Laerm;51449;51.676;5.812;2023-02-15T12:25:02;67.37;48.30;78.61;;
58251;Laerm;51449;51.676;5.812;2023-02-15T12:27:34;66.88;41.60;79.94;;
58251;Laerm;51449;51.676;5.812;2023-02-15T12:30:04;62.50;47.59;75.22;;
58251;Laerm;51449;51.676;5.812;2023-02-15T12:32:33;60.71;39.48;71.50;;
58251;Laerm;51449;51.676;5.812;2023-02-15T12:35:07;65.18;44.69;75.17;;
58251;Laerm;51449;51.676;5.812;2023-02-15T12:37:31;61.53;40.78;72.64;;
58251;Laerm;51449;51.676;5.812;2023-02-15T12:40:11;62.96;38.05;72.69;;
58251;Laerm;51449;51.676;5.812;2023-02-15T12:42:44;67.05;38.45;79.82;;
58251;Laerm;51449;51.676;5.812;2023-02-15T12:45:29;65.42;38.32;84.58;;
58251;Laerm;51449;51.676;5.812;2023-02-15T12:50:36;63.53;39.63;76.70;;
58251;Laerm;51449;51.676;5.812;2023-02-15T12:53:21;62.91;45.08;76.83;;
58251;Laerm;51449;51.676;5.812;2023-02-15T12:55:57;66.13;37.24;75.34;;
58251;Laerm;51449;51.676;5.812;2023-02-15T13:00:46;65.73;43.21;75.34;;
58251;Laerm;51449;51.676;5.812;2023-02-15T13:03:18;61.33;37.99;72.98;;
58251;Laerm;51449;51.676;5.812;2023-02-15T13:05:46;63.61;39.77;73.82;;
58251;Laerm;51449;51.676;5.812;2023-02-15T13:08:32;66.22;38.65;83.43;;
58251;Laerm;51449;51.676;5.812;2023-02-15T13:11:08;65.14;42.97;79.38;;
58251;Laerm;51449;51.676;5.812;2023-02-15T13:13:35;64.69;38.95;80.81;;
58251;Laerm;51449;51.676;5.812;2023-02-15T13:16:32;62.84;39.77;82.37;;
58251;Laerm;51449;51.676;5.812;2023-02-15T13:18:55;65.02;42.45;80.21;;
58251;Laerm;51449;51.676;5.812;2023-02-15T13:21:23;64.65;41.91;75.25;;
58251;Laerm;51449;51.676;5.812;2023-02-15T13:23:52;62.57;37.38;72.17;;
58251;Laerm;51449;51.676;5.812;2023-02-15T13:26:21;64.25;43.75;78.36;;
58251;Laerm;51449;51.676;5.812;2023-02-15T13:28:55;65.86;47.56;73.64;;
58251;Laerm;51449;51.676;5.812;2023-02-15T13:31:21;65.13;44.76;75.18;;
58251;Laerm;51449;51.676;5.812;2023-02-15T13:33:51;65.05;40.47;73.85;;
58251;Laerm;51449;51.676;5.812;2023-02-15T13:37:13;68.98;36.54;84.83;;
58251;Laerm;51449;51.676;5.812;2023-02-15T13:39:40;62.58;38.63;73.58;;
58251;Laerm;51449;51.676;5.812;2023-02-15T13:42:21;63.80;39.35;72.67;;
58251;Laerm;51449;51.676;5.812;2023-02-15T13:45:20;60.89;36.38;72.78;;
58251;Laerm;51449;51.676;5.812;2023-02-15T13:48:07;65.01;43.78;74.88;;
58251;Laerm;51449;51.676;5.812;2023-02-15T13:59:39;63.94;42.65;72.41;;
58251;Laerm;51449;51.676;5.812;2023-02-15T14:08:12;63.96;39.06;73.76;;
58251;Laerm;51449;51.676;5.812;2023-02-15T14:10:43;68.57;60.10;82.89;;
58251;Laerm;51449;51.676;5.812;2023-02-15T14:19:09;64.42;41.50;73.46;;
58251;Laerm;51449;51.676;5.812;2023-02-15T14:24:35;64.31;40.74;73.35;;
58251;Laerm;51449;51.676;5.812;2023-02-15T14:27:38;61.69;37.53;73.26;;
58251;Laerm;51449;51.676;5.812;2023-02-15T14:30:14;63.52;43.70;72.72;;
58251;Laerm;51449;51.676;5.812;2023-02-15T14:32:52;64.05;46.05;77.85;;
58251;Laerm;51449;51.676;5.812;2023-02-15T14:35:21;63.65;44.59;74.70;;
58251;Laerm;51449;51.676;5.812;2023-02-15T14:38:07;62.71;42.99;70.98;;
58251;Laerm;51449;51.676;5.812;2023-02-15T14:40:59;63.15;37.06;74.01;;
58251;Laerm;51449;51.676;5.812;2023-02-15T14:43:34;65.27;49.25;71.91;;
58251;Laerm;51449;51.676;5.812;2023-02-15T14:46:35;66.44;44.86;84.48;;
58251;Laerm;51449;51.676;5.812;2023-02-15T14:49:22;66.03;46.03;78.95;;
58251;Laerm;51449;51.676;5.812;2023-02-15T14:54:10;64.07;44.22;74.38;;
58251;Laerm;51449;51.676;5.812;2023-02-15T14:56:32;64.93;41.79;74.46;;
58251;Laerm;51449;51.676;5.812;2023-02-15T14:58:57;62.76;48.37;71.39;;
58251;Laerm;51449;51.676;5.812;2023-02-15T15:01:36;65.83;44.79;74.19;;
58251;Laerm;51449;51.676;5.812;2023-02-15T15:04:08;65.92;47.02;83.34;;
58251;Laerm;51449;51.676;5.812;2023-02-15T15:06:39;64.47;44.16;82.68;;
58251;Laerm;51449;51.676;5.812;2023-02-15T15:09:28;64.75;45.11;75.48;;
58251;Laerm;51449;51.676;5.812;2023-02-15T15:11:53;67.10;51.70;74.56;;
58251;Laerm;51449;51.676;5.812;2023-02-15T15:16:54;65.21;42.57;83.46;;
58251;Laerm;51449;51.676;5.812;2023-02-15T15:22:24;64.62;40.70;74.71;;
58251;Laerm;51449;51.676;5.812;2023-02-15T15:27:45;61.97;39.69;74.66;;
58251;Laerm;51449;51.676;5.812;2023-02-15T15:32:36;64.33;40.38;75.58;;
58251;Laerm;51449;51.676;5.812;2023-02-15T15:35:23;65.88;45.17;76.76;;
58251;Laerm;51449;51.676;5.812;2023-02-15T15:38:20;63.36;43.07;72.52;;
58251;Laerm;51449;51.676;5.812;2023-02-15T15:49:34;65.43;41.31;76.24;;
58251;Laerm;51449;51.676;5.812;2023-02-15T15:52:12;64.53;50.92;72.84;;
58251;Laerm;51449;51.676;5.812;2023-02-15T15:54:40;64.60;47.24;72.94;;